sensor_id;sensor_type;location;lat;lon;timestamp;P1;durP1;ratioP1;P2;durP2;ratioP2
1446;SDS011;717;51.522;7.266;2023-03-07T00:02:28;17.73;;;11.03;;
1446;SDS011;717;51.522;7.266;2023-03-07T00:04:59;15.17;;;9.43;;
1446;SDS011;717;51.522;7.266;2023-03-07T00:07:27;15.07;;;8.93;;
1446;SDS011;717;51.522;7.266;2023-03-07T00:09:56;16.10;;;9.37;;
1446;SDS011;717;51.522;7.266;2023-03-07T00:12:25;14.13;;;9.00;;
1446;SDS011;717;51.522;7.266;2023-03-07T00:14:54;14.53;;;8.77;;
1446;SDS011;717;51.522;7.266;2023-03-07T00:17:22;12.17;;;7.93;;
1446;SDS011;717;51.522;7.266;2023-03-07T00:19:51;10.37;;;6.17;;
1446;SDS011;717;51.522;7.266;2023-03-07T00:22:22;12.47;;;7.47;;
1446;SDS011;717;51.522;7.266;2023-03-07T00:24:51;6.73;;;4.60;;
1446;SDS011;717;51.522;7.266;2023-03-07T00:27:19;6.27;;;4.50;;
1446;SDS011;717;51.522;7.266;2023-03-07T00:29:48;5.30;;;3.43;;
1446;SDS011;717;51.522;7.266;2023-03-07T00:32:17;11.37;;;6.33;;
1446;SDS011;717;51.522;7.266;2023-03-07T00:34:45;9.27;;;5.73;;
1446;SDS011;717;51.522;7.266;2023-03-07T00:37:14;9.83;;;5.90;;
1446;SDS011;717;51.522;7.266;2023-03-07T00:39:45;10.50;;;6.80;;
1446;SDS011;717;51.522;7.266;2023-03-07T00:42:14;7.13;;;5.30;;
1446;SDS011;717;51.522;7.266;2023-03-07T00:44:42;7.23;;;5.93;;
1446;SDS011;717;51.522;7.266;2023-03-07T00:47:11;9.10;;;5.53;;
1446;SDS011;717;51.522;7.266;2023-03-07T00:49:40;8.10;;;5.33;;
1446;SDS011;717;51.522;7.266;2023-03-07T00:52:08;7.13;;;6.00;;
1446;SDS011;717;51.522;7.266;2023-03-07T00:54:37;8.47;;;6.07;;
1446;SDS011;717;51.522;7.266;2023-03-07T00:57:08;6.37;;;4.70;;
1446;SDS011;717;51.522;7.266;2023-03-07T00:59:37;8.77;;;6.87;;
1446;SDS011;717;51.522;7.266;2023-03-07T01:02:05;7.63;;;5.37;;
1446;SDS011;717;51.522;7.266;2023-03-07T01:04:34;8.30;;;5.67;;
1446;SDS011;717;51.522;7.266;2023-03-07T01:07:02;7.27;;;5.40;;
1446;SDS011;717;51.522;7.266;2023-03-07T01:09:31;8.50;;;5.50;;
1446;SDS011;717;51.522;7.266;2023-03-07T01:11:59;7.53;;;5.57;;
1446;SDS011;717;51.522;7.266;2023-03-07T01:14:33;6.10;;;4.03;;
1446;SDS011;717;51.522;7.266;2023-03-07T01:17:02;6.00;;;4.57;;
1446;SDS011;717;51.522;7.266;2023-03-07T01:19:31;9.80;;;5.07;;
1446;SDS011;717;51.522;7.266;2023-03-07T01:21:59;8.03;;;4.87;;
1446;SDS011;717;51.522;7.266;2023-03-07T01:24:28;6.20;;;4.20;;
1446;SDS011;717;51.522;7.266;2023-03-07T01:26:56;7.37;;;4.90;;
1446;SDS011;717;51.522;7.266;2023-03-07T01:29:25;8.00;;;5.87;;
1446;SDS011;717;51.522;7.266;2023-03-07T01:31:56;4.80;;;3.27;;
1446;SDS011;717;51.522;7.266;2023-03-07T01:34:25;9.17;;;6.17;;
1446;SDS011;717;51.522;7.266;2023-03-07T01:36:53;8.10;;;5.63;;
1446;SDS011;717;51.522;7.266;2023-03-07T01:39:22;7.47;;;5.33;;
1446;SDS011;717;51.522;7.266;2023-03-07T01:41:50;9.23;;;6.87;;
1446;SDS011;717;51.522;7.266;2023-03-07T01:44:20;9.07;;;6.43;;
1446;SDS011;717;51.522;7.266;2023-03-07T01:46:49;7.00;;;4.13;;
1446;SDS011;717;51.522;7.266;2023-03-07T01:49:26;8.67;;;4.80;;
1446;SDS011;717;51.522;7.266;2023-03-07T01:51:58;6.27;;;4.03;;
1446;SDS011;717;51.522;7.266;2023-03-07T01:54:29;8.20;;;6.67;;
1446;SDS011;717;51.522;7.266;2023-03-07T01:57:00;8.17;;;6.20;;
1446;SDS011;717;51.522;7.266;2023-03-07T01:59:30;7.13;;;5.97;;
1446;SDS011;717;51.522;7.266;2023-03-07T02:02:02;8.13;;;6.07;;
1446;SDS011;717;51.522;7.266;2023-03-07T02:04:38;7.80;;;5.50;;
1446;SDS011;717;51.522;7.266;2023-03-07T02:07:10;7.47;;;4.63;;
1446;SDS011;717;51.522;7.266;2023-03-07T02:09:39;8.60;;;6.37;;
1446;SDS011;717;51.522;7.266;2023-03-07T02:12:08;10.70;;;7.90;;
1446;SDS011;717;51.522;7.266;2023-03-07T02:14:37;8.57;;;6.90;;
1446;SDS011;717;51.522;7.266;2023-03-07T02:17:09;8.77;;;7.40;;
1446;SDS011;717;51.522;7.266;2023-03-07T02:19:43;9.83;;;7.43;;
1446;SDS011;717;51.522;7.266;2023-03-07T02:22:20;9.60;;;6.90;;
1446;SDS011;717;51.522;7.266;2023-03-07T02:24:50;6.27;;;4.77;;
1446;SDS011;717;51.522;7.266;2023-03-07T02:27:25;10.13;;;7.97;;
1446;SDS011;717;51.522;7.266;2023-03-07T02:29:57;11.00;;;8.33;;
1446;SDS011;717;51.522;7.266;2023-03-07T02:32:25;10.77;;;7.80;;
1446;SDS011;717;51.522;7.266;2023-03-07T02:34:54;9.13;;;7.70;;
1446;SDS011;717;51.522;7.266;2023-03-07T02:37:24;8.87;;;6.87;;
1446;SDS011;717;51.522;7.266;2023-03-07T02:39:55;8.93;;;6.93;;
1446;SDS011;717;51.522;7.266;2023-03-07T02:42:32;6.10;;;4.63;;
1446;SDS011;717;51.522;7.266;2023-03-07T02:45:05;9.37;;;7.43;;
1446;SDS011;717;51.522;7.266;2023-03-07T02:47:36;9.13;;;7.73;;
1446;SDS011;717;51.522;7.266;2023-03-07T02:50:05;11.07;;;8.13;;
1446;SDS011;717;51.522;7.266;2023-03-07T02:52:36;10.87;;;9.30;;
1446;SDS011;717;51.522;7.266;2023-03-07T02:55:05;12.77;;;9.50;;
1446;SDS011;717;51.522;7.266;2023-03-07T02:57:37;11.40;;;7.73;;
1446;SDS011;717;51.522;7.266;2023-03-07T03:00:06;10.47;;;8.33;;
1446;SDS011;717;51.522;7.266;2023-03-07T03:02:36;9.53;;;7.60;;
1446;SDS011;717;51.522;7.266;2023-03-07T03:05:06;10.83;;;7.67;;
1446;SDS011;717;51.522;7.266;2023-03-07T03:07:35;6.53;;;5.83;;
1446;SDS011;717;51.522;7.266;2023-03-07T03:10:04;7.03;;;5.53;;
1446;SDS011;717;51.522;7.266;2023-03-07T03:12:33;6.93;;;4.80;;
1446;SDS011;717;51.522;7.266;2023-03-07T03:15:05;3.87;;;3.47;;
1446;SDS011;717;51.522;7.266;2023-03-07T03:17:35;4.13;;;3.23;;
1446;SDS011;717;51.522;7.266;2023-03-07T03:20:04;3.60;;;3.27;;
1446;SDS011;717;51.522;7.266;2023-03-07T03:22:36;4.80;;;3.57;;
1446;SDS011;717;51.522;7.266;2023-03-07T03:25:05;3.10;;;2.70;;
1446;SDS011;717;51.522;7.266;2023-03-07T03:27:35;5.10;;;3.40;;
1446;SDS011;717;51.522;7.266;2023-03-07T03:30:08;4.23;;;3.47;;
1446;SDS011;717;51.522;7.266;2023-03-07T03:32:38;3.10;;;2.63;;
1446;SDS011;717;51.522;7.266;2023-03-07T03:35:08;3.83;;;3.27;;
1446;SDS011;717;51.522;7.266;2023-03-07T03:37:38;2.77;;;2.40;;
1446;SDS011;717;51.522;7.266;2023-03-07T03:40:07;1.80;;;1.60;;
1446;SDS011;717;51.522;7.266;2023-03-07T03:42:39;1.40;;;1.17;;
1446;SDS011;717;51.522;7.266;2023-03-07T03:45:11;2.07;;;1.87;;
1446;SDS011;717;51.522;7.266;2023-03-07T03:47:41;2.43;;;2.17;;
1446;SDS011;717;51.522;7.266;2023-03-07T03:50:12;2.87;;;2.57;;
1446;SDS011;717;51.522;7.266;2023-03-07T03:52:41;2.23;;;2.03;;
1446;SDS011;717;51.522;7.266;2023-03-07T03:55:10;2.83;;;2.53;;
1446;SDS011;717;51.522;7.266;2023-03-07T03:57:39;3.50;;;2.80;;
1446;SDS011;717;51.522;7.266;2023-03-07T04:00:11;4.13;;;3.33;;
1446;SDS011;717;51.522;7.266;2023-03-07T04:02:40;3.37;;;3.00;;
1446;SDS011;717;51.522;7.266;2023-03-07T04:05:09;3.57;;;3.27;;
1446;SDS011;717;51.522;7.266;2023-03-07T04:07:38;4.13;;;3.53;;
1446;SDS011;717;51.522;7.266;2023-03-07T04:10:07;3.33;;;2.80;;
1446;SDS011;717;51.522;7.266;2023-03-07T04:12:36;3.53;;;3.23;;
1446;SDS011;717;51.522;7.266;2023-03-07T04:15:05;2.83;;;2.50;;
1446;SDS011;717;51.522;7.266;2023-03-07T04:17:39;4.23;;;3.83;;
1446;SDS011;717;51.522;7.266;2023-03-07T04:20:08;4.33;;;3.50;;
1446;SDS011;717;51.522;7.266;2023-03-07T04:22:41;3.77;;;3.37;;
1446;SDS011;717;51.522;7.266;2023-03-07T04:25:10;4.60;;;3.63;;
1446;SDS011;717;51.522;7.266;2023-03-07T04:27:38;5.37;;;4.47;;
1446;SDS011;717;51.522;7.266;2023-03-07T04:30:08;5.10;;;4.60;;
1446;SDS011;717;51.522;7.266;2023-03-07T04:32:40;4.90;;;4.40;;
1446;SDS011;717;51.522;7.266;2023-03-07T04:35:09;4.87;;;4.27;;
1446;SDS011;717;51.522;7.266;2023-03-07T04:37:37;4.83;;;4.17;;
1446;SDS011;717;51.522;7.266;2023-03-07T04:40:06;4.47;;;4.07;;
1446;SDS011;717;51.522;7.266;2023-03-07T04:42:36;6.20;;;5.00;;
1446;SDS011;717;51.522;7.266;2023-03-07T04:45:05;7.40;;;5.97;;
1446;SDS011;717;51.522;7.266;2023-03-07T04:47:35;7.83;;;6.70;;
1446;SDS011;717;51.522;7.266;2023-03-07T04:50:07;7.20;;;5.93;;
1446;SDS011;717;51.522;7.266;2023-03-07T04:52:36;7.10;;;5.87;;
1446;SDS011;717;51.522;7.266;2023-03-07T04:55:05;7.37;;;5.40;;
1446;SDS011;717;51.522;7.266;2023-03-07T04:57:34;4.40;;;3.90;;
1446;SDS011;717;51.522;7.266;2023-03-07T05:00:03;3.93;;;3.07;;
1446;SDS011;717;51.522;7.266;2023-03-07T05:02:34;5.23;;;3.80;;
1446;SDS011;717;51.522;7.266;2023-03-07T05:05:05;3.40;;;3.00;;
1446;SDS011;717;51.522;7.266;2023-03-07T05:07:35;4.60;;;3.73;;
1446;SDS011;717;51.522;7.266;2023-03-07T05:10:04;4.30;;;3.30;;
1446;SDS011;717;51.522;7.266;2023-03-07T05:12:34;3.40;;;3.10;;
1446;SDS011;717;51.522;7.266;2023-03-07T05:15:02;3.67;;;2.70;;
1446;SDS011;717;51.522;7.266;2023-03-07T05:17:32;3.30;;;3.00;;
1446;SDS011;717;51.522;7.266;2023-03-07T05:20:00;3.70;;;3.33;;
1446;SDS011;717;51.522;7.266;2023-03-07T05:22:32;3.53;;;1.47;;
1446;SDS011;717;51.522;7.266;2023-03-07T05:25:00;4.77;;;3.80;;
1446;SDS011;717;51.522;7.266;2023-03-07T05:27:29;5.00;;;3.90;;
1446;SDS011;717;51.522;7.266;2023-03-07T05:29:58;5.33;;;4.23;;
1446;SDS011;717;51.522;7.266;2023-03-07T05:32:27;6.40;;;5.10;;
1446;SDS011;717;51.522;7.266;2023-03-07T05:34:55;5.30;;;4.23;;
1446;SDS011;717;51.522;7.266;2023-03-07T05:37:24;6.67;;;5.53;;
1446;SDS011;717;51.522;7.266;2023-03-07T05:39:55;8.97;;;5.73;;
1446;SDS011;717;51.522;7.266;2023-03-07T05:42:24;7.67;;;5.20;;
1446;SDS011;717;51.522;7.266;2023-03-07T05:44:52;8.73;;;5.53;;
1446;SDS011;717;51.522;7.266;2023-03-07T05:47:21;5.97;;;4.27;;
1446;SDS011;717;51.522;7.266;2023-03-07T05:49:49;5.00;;;4.07;;
1446;SDS011;717;51.522;7.266;2023-03-07T05:52:18;6.37;;;5.53;;
1446;SDS011;717;51.522;7.266;2023-03-07T05:54:47;7.47;;;4.93;;
1446;SDS011;717;51.522;7.266;2023-03-07T05:57:18;7.80;;;5.57;;
1446;SDS011;717;51.522;7.266;2023-03-07T05:59:46;7.67;;;5.70;;
1446;SDS011;717;51.522;7.266;2023-03-07T06:02:15;10.27;;;7.43;;
1446;SDS011;717;51.522;7.266;2023-03-07T06:04:44;5.87;;;4.53;;
1446;SDS011;717;51.522;7.266;2023-03-07T06:07:13;7.00;;;5.00;;
1446;SDS011;717;51.522;7.266;2023-03-07T06:09:42;11.13;;;7.77;;
1446;SDS011;717;51.522;7.266;2023-03-07T06:12:10;7.87;;;5.70;;
1446;SDS011;717;51.522;7.266;2023-03-07T06:14:42;8.03;;;6.10;;
1446;SDS011;717;51.522;7.266;2023-03-07T06:17:10;8.17;;;7.23;;
1446;SDS011;717;51.522;7.266;2023-03-07T06:19:39;10.20;;;7.43;;
1446;SDS011;717;51.522;7.266;2023-03-07T06:22:07;8.23;;;6.43;;
1446;SDS011;717;51.522;7.266;2023-03-07T06:24:36;7.77;;;6.30;;
1446;SDS011;717;51.522;7.266;2023-03-07T06:27:05;7.70;;;6.17;;
1446;SDS011;717;51.522;7.266;2023-03-07T06:29:33;8.37;;;5.30;;
1446;SDS011;717;51.522;7.266;2023-03-07T06:32:05;9.43;;;6.57;;
1446;SDS011;717;51.522;7.266;2023-03-07T06:34:33;7.43;;;5.30;;
1446;SDS011;717;51.522;7.266;2023-03-07T06:37:04;6.60;;;5.47;;
1446;SDS011;717;51.522;7.266;2023-03-07T06:39:33;8.67;;;7.57;;
1446;SDS011;717;51.522;7.266;2023-03-07T06:42:02;8.00;;;5.63;;
1446;SDS011;717;51.522;7.266;2023-03-07T06:44:31;10.13;;;7.00;;
1446;SDS011;717;51.522;7.266;2023-03-07T06:46:59;6.80;;;6.07;;
1446;SDS011;717;51.522;7.266;2023-03-07T06:49:30;8.10;;;6.47;;
1446;SDS011;717;51.522;7.266;2023-03-07T06:51:59;7.00;;;6.17;;
1446;SDS011;717;51.522;7.266;2023-03-07T06:54:28;10.57;;;6.90;;
1446;SDS011;717;51.522;7.266;2023-03-07T06:56:57;8.10;;;6.80;;
1446;SDS011;717;51.522;7.266;2023-03-07T06:59:25;8.20;;;6.90;;
1446;SDS011;717;51.522;7.266;2023-03-07T07:01:54;10.77;;;8.17;;
1446;SDS011;717;51.522;7.266;2023-03-07T07:04:22;7.40;;;6.10;;
1446;SDS011;717;51.522;7.266;2023-03-07T07:06:54;11.20;;;7.50;;
1446;SDS011;717;51.522;7.266;2023-03-07T07:09:22;8.20;;;6.87;;
1446;SDS011;717;51.522;7.266;2023-03-07T07:11:51;11.17;;;8.30;;
1446;SDS011;717;51.522;7.266;2023-03-07T07:14:19;9.93;;;6.63;;
1446;SDS011;717;51.522;7.266;2023-03-07T07:16:48;10.77;;;8.00;;
1446;SDS011;717;51.522;7.266;2023-03-07T07:19:17;8.63;;;6.37;;
1446;SDS011;717;51.522;7.266;2023-03-07T07:21:46;11.70;;;8.37;;
1446;SDS011;717;51.522;7.266;2023-03-07T07:24:17;9.57;;;6.80;;
1446;SDS011;717;51.522;7.266;2023-03-07T07:26:46;13.93;;;8.83;;
1446;SDS011;717;51.522;7.266;2023-03-07T07:29:14;11.30;;;8.00;;
1446;SDS011;717;51.522;7.266;2023-03-07T07:31:43;10.97;;;8.07;;
1446;SDS011;717;51.522;7.266;2023-03-07T07:34:13;8.67;;;6.33;;
1446;SDS011;717;51.522;7.266;2023-03-07T07:36:42;10.60;;;6.33;;
1446;SDS011;717;51.522;7.266;2023-03-07T07:39:11;9.70;;;7.20;;
1446;SDS011;717;51.522;7.266;2023-03-07T07:41:44;8.97;;;7.20;;
1446;SDS011;717;51.522;7.266;2023-03-07T07:44:13;9.13;;;6.13;;
1446;SDS011;717;51.522;7.266;2023-03-07T07:46:41;10.00;;;7.00;;
1446;SDS011;717;51.522;7.266;2023-03-07T07:49:10;10.63;;;7.33;;
1446;SDS011;717;51.522;7.266;2023-03-07T07:51:38;9.40;;;6.70;;
1446;SDS011;717;51.522;7.266;2023-03-07T07:54:07;7.83;;;5.50;;
1446;SDS011;717;51.522;7.266;2023-03-07T07:56:36;7.10;;;5.27;;
1446;SDS011;717;51.522;7.266;2023-03-07T07:59:07;9.33;;;6.13;;
1446;SDS011;717;51.522;7.266;2023-03-07T08:01:36;9.70;;;5.97;;
1446;SDS011;717;51.522;7.266;2023-03-07T08:04:05;9.60;;;6.70;;
1446;SDS011;717;51.522;7.266;2023-03-07T08:06:34;9.80;;;7.03;;
1446;SDS011;717;51.522;7.266;2023-03-07T08:09:02;10.53;;;7.17;;
1446;SDS011;717;51.522;7.266;2023-03-07T08:11:32;8.10;;;6.53;;
1446;SDS011;717;51.522;7.266;2023-03-07T08:14:01;9.43;;;5.73;;
1446;SDS011;717;51.522;7.266;2023-03-07T08:16:32;6.50;;;5.77;;
1446;SDS011;717;51.522;7.266;2023-03-07T08:19:01;9.43;;;6.23;;
1446;SDS011;717;51.522;7.266;2023-03-07T08:21:30;8.43;;;6.93;;
1446;SDS011;717;51.522;7.266;2023-03-07T08:23:59;8.00;;;5.23;;
1446;SDS011;717;51.522;7.266;2023-03-07T08:26:28;8.97;;;6.40;;
1446;SDS011;717;51.522;7.266;2023-03-07T08:28:56;9.20;;;6.43;;
1446;SDS011;717;51.522;7.266;2023-03-07T08:31:25;9.97;;;7.10;;
1446;SDS011;717;51.522;7.266;2023-03-07T08:33:56;9.47;;;7.07;;
1446;SDS011;717;51.522;7.266;2023-03-07T08:36:25;9.87;;;7.00;;
1446;SDS011;717;51.522;7.266;2023-03-07T08:38:54;9.63;;;6.77;;
1446;SDS011;717;51.522;7.266;2023-03-07T08:41:22;11.10;;;8.27;;
1446;SDS011;717;51.522;7.266;2023-03-07T08:43:51;12.40;;;8.07;;
1446;SDS011;717;51.522;7.266;2023-03-07T08:46:20;10.90;;;8.20;;
1446;SDS011;717;51.522;7.266;2023-03-07T08:48:49;7.10;;;6.07;;
1446;SDS011;717;51.522;7.266;2023-03-07T08:51:20;8.20;;;6.73;;
1446;SDS011;717;51.522;7.266;2023-03-07T08:53:49;7.67;;;5.67;;
1446;SDS011;717;51.522;7.266;2023-03-07T08:56:18;5.23;;;4.73;;
1446;SDS011;717;51.522;7.266;2023-03-07T08:58:47;5.07;;;4.27;;
1446;SDS011;717;51.522;7.266;2023-03-07T09:01:18;5.00;;;4.50;;
1446;SDS011;717;51.522;7.266;2023-03-07T09:03:47;5.73;;;4.87;;
1446;SDS011;717;51.522;7.266;2023-03-07T09:06:16;5.60;;;4.40;;
1446;SDS011;717;51.522;7.266;2023-03-07T09:08:48;5.33;;;4.67;;
1446;SDS011;717;51.522;7.266;2023-03-07T09:11:18;6.23;;;4.47;;
1446;SDS011;717;51.522;7.266;2023-03-07T09:13:47;5.93;;;4.57;;
1446;SDS011;717;51.522;7.266;2023-03-07T09:16:16;5.87;;;4.53;;
1446;SDS011;717;51.522;7.266;2023-03-07T09:18:44;5.03;;;3.77;;
1446;SDS011;717;51.522;7.266;2023-03-07T09:21:13;4.57;;;3.77;;
1446;SDS011;717;51.522;7.266;2023-03-07T09:23:41;5.73;;;3.83;;
1446;SDS011;717;51.522;7.266;2023-03-07T09:26:13;3.27;;;2.90;;
1446;SDS011;717;51.522;7.266;2023-03-07T09:28:42;3.27;;;2.97;;
1446;SDS011;717;51.522;7.266;2023-03-07T09:31:11;3.73;;;2.80;;
1446;SDS011;717;51.522;7.266;2023-03-07T09:33:41;2.80;;;2.40;;
1446;SDS011;717;51.522;7.266;2023-03-07T09:36:10;3.23;;;2.93;;
1446;SDS011;717;51.522;7.266;2023-03-07T09:38:40;2.70;;;2.30;;
1446;SDS011;717;51.522;7.266;2023-03-07T09:41:16;3.80;;;2.17;;
1446;SDS011;717;51.522;7.266;2023-03-07T09:43:54;2.27;;;2.10;;
1446;SDS011;717;51.522;7.266;2023-03-07T09:46:29;2.50;;;2.30;;
1446;SDS011;717;51.522;7.266;2023-03-07T09:49:14;2.53;;;2.33;;
1446;SDS011;717;51.522;7.266;2023-03-07T09:51:45;2.43;;;2.20;;
1446;SDS011;717;51.522;7.266;2023-03-07T09:54:17;2.60;;;2.40;;
1446;SDS011;717;51.522;7.266;2023-03-07T09:56:51;2.47;;;2.27;;
1446;SDS011;717;51.522;7.266;2023-03-07T09:59:23;3.27;;;2.70;;
1446;SDS011;717;51.522;7.266;2023-03-07T10:02:02;2.77;;;2.57;;
1446;SDS011;717;51.522;7.266;2023-03-07T10:04:42;3.00;;;2.70;;
1446;SDS011;717;51.522;7.266;2023-03-07T10:07:15;2.63;;;2.43;;
1446;SDS011;717;51.522;7.266;2023-03-07T10:09:46;2.93;;;2.63;;
1446;SDS011;717;51.522;7.266;2023-03-07T10:12:24;3.83;;;3.40;;
1446;SDS011;717;51.522;7.266;2023-03-07T10:18:12;3.43;;;3.13;;
1446;SDS011;717;51.522;7.266;2023-03-07T10:20:48;3.63;;;3.10;;
1446;SDS011;717;51.522;7.266;2023-03-07T10:23:26;3.80;;;3.40;;
1446;SDS011;717;51.522;7.266;2023-03-07T10:26:09;3.70;;;3.40;;
1446;SDS011;717;51.522;7.266;2023-03-07T10:28:41;4.30;;;3.90;;
1446;SDS011;717;51.522;7.266;2023-03-07T10:31:15;4.07;;;3.57;;
1446;SDS011;717;51.522;7.266;2023-03-07T10:33:48;4.50;;;4.10;;
1446;SDS011;717;51.522;7.266;2023-03-07T10:36:18;3.70;;;3.40;;
1446;SDS011;717;51.522;7.266;2023-03-07T10:38:54;4.20;;;3.20;;
1446;SDS011;717;51.522;7.266;2023-03-07T10:41:27;2.50;;;2.30;;
1446;SDS011;717;51.522;7.266;2023-03-07T10:43:59;3.63;;;3.30;;
1446;SDS011;717;51.522;7.266;2023-03-07T10:46:28;2.60;;;2.40;;
1446;SDS011;717;51.522;7.266;2023-03-07T10:49:01;2.97;;;2.67;;
1446;SDS011;717;51.522;7.266;2023-03-07T10:51:37;2.60;;;2.40;;
1446;SDS011;717;51.522;7.266;2023-03-07T10:54:16;3.03;;;2.73;;
1446;SDS011;717;51.522;7.266;2023-03-07T10:59:36;3.73;;;3.33;;
1446;SDS011;717;51.522;7.266;2023-03-07T11:04:58;3.53;;;2.50;;
1446;SDS011;717;51.522;7.266;2023-03-07T11:07:28;3.83;;;2.60;;
1446;SDS011;717;51.522;7.266;2023-03-07T11:09:59;4.20;;;2.93;;
1446;SDS011;717;51.522;7.266;2023-03-07T11:12:29;2.57;;;2.37;;
1446;SDS011;717;51.522;7.266;2023-03-07T11:15:10;2.03;;;1.87;;
1446;SDS011;717;51.522;7.266;2023-03-07T11:17:46;2.63;;;2.43;;
1446;SDS011;717;51.522;7.266;2023-03-07T11:20:17;3.10;;;2.50;;
1446;SDS011;717;51.522;7.266;2023-03-07T11:22:48;2.83;;;2.27;;
1446;SDS011;717;51.522;7.266;2023-03-07T11:25:19;4.07;;;2.83;;
1446;SDS011;717;51.522;7.266;2023-03-07T11:27:51;3.93;;;2.77;;
1446;SDS011;717;51.522;7.266;2023-03-07T11:30:24;3.47;;;3.10;;
1446;SDS011;717;51.522;7.266;2023-03-07T11:33:02;3.20;;;3.00;;
1446;SDS011;717;51.522;7.266;2023-03-07T11:35:50;3.80;;;3.50;;
1446;SDS011;717;51.522;7.266;2023-03-07T11:38:27;3.50;;;3.13;;
1446;SDS011;717;51.522;7.266;2023-03-07T11:41:04;3.27;;;2.97;;
1446;SDS011;717;51.522;7.266;2023-03-07T11:43:45;3.73;;;3.20;;
1446;SDS011;717;51.522;7.266;2023-03-07T11:46:25;3.00;;;2.80;;
1446;SDS011;717;51.522;7.266;2023-03-07T11:49:05;2.90;;;2.70;;
1446;SDS011;717;51.522;7.266;2023-03-07T11:51:45;3.10;;;2.80;;
1446;SDS011;717;51.522;7.266;2023-03-07T11:54:23;4.07;;;3.20;;
1446;SDS011;717;51.522;7.266;2023-03-07T11:57:03;4.33;;;4.03;;
1446;SDS011;717;51.522;7.266;2023-03-07T12:02:59;3.83;;;3.43;;
1446;SDS011;717;51.522;7.266;2023-03-07T12:05:43;3.63;;;3.33;;
1446;SDS011;717;51.522;7.266;2023-03-07T12:08:39;5.17;;;3.37;;
1446;SDS011;717;51.522;7.266;2023-03-07T12:11:22;3.33;;;3.03;;
1446;SDS011;717;51.522;7.266;2023-03-07T12:14:01;2.70;;;2.50;;
1446;SDS011;717;51.522;7.266;2023-03-07T12:16:43;3.30;;;3.00;;
1446;SDS011;717;51.522;7.266;2023-03-07T12:22:22;4.97;;;3.50;;
1446;SDS011;717;51.522;7.266;2023-03-07T12:25:02;4.03;;;3.57;;
1446;SDS011;717;51.522;7.266;2023-03-07T12:27:44;7.27;;;4.97;;
1446;SDS011;717;51.522;7.266;2023-03-07T12:30:17;7.40;;;5.07;;
1446;SDS011;717;51.522;7.266;2023-03-07T12:32:50;5.57;;;4.53;;
1446;SDS011;717;51.522;7.266;2023-03-07T12:35:24;6.10;;;4.90;;
1446;SDS011;717;51.522;7.266;2023-03-07T12:37:57;7.00;;;5.13;;
1446;SDS011;717;51.522;7.266;2023-03-07T12:40:32;4.47;;;4.03;;
1446;SDS011;717;51.522;7.266;2023-03-07T12:43:07;4.33;;;3.53;;
1446;SDS011;717;51.522;7.266;2023-03-07T12:45:42;4.33;;;3.87;;
1446;SDS011;717;51.522;7.266;2023-03-07T12:48:16;4.53;;;3.93;;
1446;SDS011;717;51.522;7.266;2023-03-07T12:50:53;4.00;;;3.33;;
1446;SDS011;717;51.522;7.266;2023-03-07T12:53:29;4.00;;;3.60;;
1446;SDS011;717;51.522;7.266;2023-03-07T12:56:03;4.30;;;3.87;;
1446;SDS011;717;51.522;7.266;2023-03-07T12:58:40;3.77;;;3.23;;
1446;SDS011;717;51.522;7.266;2023-03-07T13:01:14;4.33;;;3.50;;
1446;SDS011;717;51.522;7.266;2023-03-07T13:03:48;3.57;;;3.10;;
1446;SDS011;717;51.522;7.266;2023-03-07T13:06:24;4.57;;;3.87;;
1446;SDS011;717;51.522;7.266;2023-03-07T13:08:55;5.07;;;4.30;;
1446;SDS011;717;51.522;7.266;2023-03-07T13:11:27;8.97;;;5.93;;
1446;SDS011;717;51.522;7.266;2023-03-07T13:13:57;7.47;;;4.93;;
1446;SDS011;717;51.522;7.266;2023-03-07T13:16:30;9.33;;;6.27;;
1446;SDS011;717;51.522;7.266;2023-03-07T13:22:02;6.30;;;4.93;;
1446;SDS011;717;51.522;7.266;2023-03-07T13:24:51;7.70;;;5.90;;
1446;SDS011;717;51.522;7.266;2023-03-07T13:27:21;8.13;;;6.10;;
1446;SDS011;717;51.522;7.266;2023-03-07T13:30:14;7.63;;;5.73;;
1446;SDS011;717;51.522;7.266;2023-03-07T13:32:53;8.13;;;5.57;;
1446;SDS011;717;51.522;7.266;2023-03-07T13:38:29;8.30;;;5.70;;
1446;SDS011;717;51.522;7.266;2023-03-07T13:40:59;6.83;;;5.00;;
1446;SDS011;717;51.522;7.266;2023-03-07T13:43:32;8.80;;;6.60;;
1446;SDS011;717;51.522;7.266;2023-03-07T13:46:28;10.43;;;6.67;;
1446;SDS011;717;51.522;7.266;2023-03-07T13:55:29;8.63;;;6.40;;
1446;SDS011;717;51.522;7.266;2023-03-07T13:58:12;11.93;;;8.00;;
1446;SDS011;717;51.522;7.266;2023-03-07T14:00:49;10.07;;;7.20;;
1446;SDS011;717;51.522;7.266;2023-03-07T14:03:24;10.83;;;7.43;;
1446;SDS011;717;51.522;7.266;2023-03-07T14:05:59;10.20;;;7.27;;
1446;SDS011;717;51.522;7.266;2023-03-07T14:08:34;11.73;;;8.30;;
1446;SDS011;717;51.522;7.266;2023-03-07T14:11:11;12.00;;;7.83;;
1446;SDS011;717;51.522;7.266;2023-03-07T14:13:58;11.17;;;7.90;;
1446;SDS011;717;51.522;7.266;2023-03-07T14:16:56;11.23;;;7.87;;
1446;SDS011;717;51.522;7.266;2023-03-07T14:19:44;10.47;;;6.90;;
1446;SDS011;717;51.522;7.266;2023-03-07T14:22:25;9.87;;;7.30;;
1446;SDS011;717;51.522;7.266;2023-03-07T14:25:12;9.97;;;7.10;;
1446;SDS011;717;51.522;7.266;2023-03-07T14:27:50;10.20;;;7.47;;
1446;SDS011;717;51.522;7.266;2023-03-07T14:30:21;7.33;;;5.43;;
1446;SDS011;717;51.522;7.266;2023-03-07T14:32:50;9.80;;;7.17;;
1446;SDS011;717;51.522;7.266;2023-03-07T14:35:32;9.13;;;7.47;;
1446;SDS011;717;51.522;7.266;2023-03-07T14:38:11;10.10;;;7.37;;
1446;SDS011;717;51.522;7.266;2023-03-07T14:40:49;10.13;;;7.03;;
1446;SDS011;717;51.522;7.266;2023-03-07T14:43:47;9.17;;;7.30;;
1446;SDS011;717;51.522;7.266;2023-03-07T14:46:27;10.20;;;7.03;;
1446;SDS011;717;51.522;7.266;2023-03-07T14:49:09;10.13;;;6.77;;
1446;SDS011;717;51.522;7.266;2023-03-07T14:51:48;8.20;;;6.27;;
1446;SDS011;717;51.522;7.266;2023-03-07T14:54:18;10.23;;;7.07;;
1446;SDS011;717;51.522;7.266;2023-03-07T14:56:51;10.67;;;7.40;;
1446;SDS011;717;51.522;7.266;2023-03-07T14:59:23;8.57;;;6.80;;
1446;SDS011;717;51.522;7.266;2023-03-07T15:01:52;8.43;;;6.60;;
1446;SDS011;717;51.522;7.266;2023-03-07T15:04:22;8.63;;;6.43;;
1446;SDS011;717;51.522;7.266;2023-03-07T15:06:52;9.53;;;7.00;;
1446;SDS011;717;51.522;7.266;2023-03-07T15:09:23;10.10;;;6.93;;
1446;SDS011;717;51.522;7.266;2023-03-07T15:11:54;10.60;;;6.57;;
1446;SDS011;717;51.522;7.266;2023-03-07T15:14:33;9.40;;;6.80;;
1446;SDS011;717;51.522;7.266;2023-03-07T15:17:09;7.97;;;6.33;;
1446;SDS011;717;51.522;7.266;2023-03-07T15:19:43;10.00;;;6.90;;
1446;SDS011;717;51.522;7.266;2023-03-07T15:22:14;8.80;;;6.60;;
1446;SDS011;717;51.522;7.266;2023-03-07T15:24:47;10.07;;;6.67;;
1446;SDS011;717;51.522;7.266;2023-03-07T15:27:17;9.40;;;6.43;;
1446;SDS011;717;51.522;7.266;2023-03-07T15:29:53;9.50;;;5.97;;
1446;SDS011;717;51.522;7.266;2023-03-07T15:32:27;7.97;;;6.30;;
1446;SDS011;717;51.522;7.266;2023-03-07T15:34:58;10.17;;;6.90;;
1446;SDS011;717;51.522;7.266;2023-03-07T15:37:28;10.90;;;7.37;;
1446;SDS011;717;51.522;7.266;2023-03-07T15:39:59;13.33;;;7.63;;
1446;SDS011;717;51.522;7.266;2023-03-07T15:42:29;13.73;;;8.43;;
1446;SDS011;717;51.522;7.266;2023-03-07T15:45:01;13.60;;;8.97;;
1446;SDS011;717;51.522;7.266;2023-03-07T15:47:32;13.17;;;9.03;;
1446;SDS011;717;51.522;7.266;2023-03-07T15:50:02;15.50;;;8.80;;
1446;SDS011;717;51.522;7.266;2023-03-07T15:52:33;15.17;;;8.73;;
1446;SDS011;717;51.522;7.266;2023-03-07T15:55:04;15.77;;;11.13;;
1446;SDS011;717;51.522;7.266;2023-03-07T15:57:46;14.00;;;9.00;;
1446;SDS011;717;51.522;7.266;2023-03-07T16:00:20;12.90;;;8.70;;
1446;SDS011;717;51.522;7.266;2023-03-07T16:03:09;14.10;;;9.33;;
1446;SDS011;717;51.522;7.266;2023-03-07T16:05:46;13.13;;;9.87;;
1446;SDS011;717;51.522;7.266;2023-03-07T16:08:16;15.83;;;10.20;;
1446;SDS011;717;51.522;7.266;2023-03-07T16:10:47;12.87;;;8.37;;
1446;SDS011;717;51.522;7.266;2023-03-07T16:13:18;11.80;;;7.97;;
1446;SDS011;717;51.522;7.266;2023-03-07T16:16:03;12.37;;;8.50;;
1446;SDS011;717;51.522;7.266;2023-03-07T16:18:33;14.13;;;9.43;;
1446;SDS011;717;51.522;7.266;2023-03-07T16:21:02;15.13;;;10.03;;
1446;SDS011;717;51.522;7.266;2023-03-07T16:23:31;11.93;;;8.93;;
1446;SDS011;717;51.522;7.266;2023-03-07T16:26:00;12.10;;;8.50;;